createdAt,value
2018-11-03T00:00:15.354Z,56229.04
2018-11-03T00:02:45.474Z,56175.56
2018-11-03T00:05:15.027Z,56156.03
2018-11-03T00:07:44.729Z,56173.51
2018-11-03T00:10:13.856Z,56212.58
2018-11-03T00:12:43.036Z,56188.93
2018-11-03T00:15:12.214Z,56187.90
2018-11-03T00:17:41.371Z,56190.99
2018-11-03T00:20:10.473Z,56212.58
2018-11-03T00:22:39.627Z,56194.07
2018-11-03T00:25:09.384Z,56161.17
2018-11-03T00:27:38.955Z,56190.99
2018-11-03T00:30:11.159Z,56195.10
2018-11-03T00:32:40.307Z,56185.85
2018-11-03T00:35:09.577Z,56163.23
2018-11-03T00:37:38.794Z,56159.11
2018-11-03T00:40:11.270Z,56231.09
2018-11-03T00:42:40.441Z,56185.85
2018-11-03T00:45:11.207Z,56183.79
2018-11-03T00:47:41.279Z,56152.94
2018-11-03T00:50:12.147Z,56138.55
2018-11-03T00:52:41.853Z,56170.42
2018-11-03T00:55:11.781Z,56173.51
2018-11-03T00:57:41.459Z,56180.71
2018-11-03T01:00:14.228Z,56219.78
2018-11-03T01:02:45.683Z,56188.93
2018-11-03T01:05:15.015Z,56156.03
2018-11-03T01:07:44.622Z,56205.38
2018-11-03T01:10:13.846Z,56153.97
2018-11-03T01:12:42.995Z,56166.31
2018-11-03T01:15:13.854Z,56174.54
2018-11-03T01:17:43.157Z,56184.82
2018-11-03T01:20:14.985Z,56159.11
2018-11-03T01:22:44.319Z,56178.65
2018-11-03T01:25:13.533Z,56160.14
2018-11-03T01:27:42.707Z,56169.39
2018-11-03T01:30:14.458Z,56166.31
2018-11-03T01:32:43.721Z,56167.34
2018-11-03T01:35:12.751Z,56177.62
2018-11-03T01:37:41.898Z,56221.84
2018-11-03T01:40:18.522Z,56165.28
2018-11-03T01:42:47.690Z,56160.14
2018-11-03T01:45:16.840Z,56192.02
2018-11-03T01:47:45.977Z,56199.21
2018-11-03T01:50:15.187Z,56211.55
2018-11-03T01:52:44.307Z,56183.79
2018-11-03T01:55:13.470Z,56158.09
2018-11-03T01:57:42.681Z,56156.03
2018-11-03T02:00:12.100Z,56180.71
2018-11-03T02:02:41.320Z,56180.71
2018-11-03T02:05:11.215Z,56175.56
2018-11-03T02:07:40.627Z,56174.54
2018-11-03T02:10:11.244Z,56188.93
2018-11-03T02:12:40.654Z,56184.82
2018-11-03T02:15:10.272Z,56195.10
2018-11-03T02:17:39.486Z,56188.93
2018-11-03T02:20:10.076Z,56186.87
2018-11-03T02:22:40.007Z,56181.73
2018-11-03T02:25:09.799Z,56178.65
2018-11-03T02:27:38.991Z,56182.76
2018-11-03T02:30:09.318Z,56182.76
2018-11-03T02:32:38.472Z,56185.85
2018-11-03T02:35:08.558Z,56178.65
2018-11-03T02:37:38.253Z,56190.99
2018-11-03T02:40:09.235Z,56170.42
2018-11-03T02:42:38.389Z,56190.99
2018-11-03T02:45:08.912Z,56190.99
2018-11-03T02:47:38.053Z,56175.56
2018-11-03T02:50:10.100Z,56151.91
2018-11-03T02:52:39.272Z,56176.59
2018-11-03T02:55:08.429Z,56170.42
2018-11-03T02:57:38.001Z,56183.79
2018-11-03T03:00:08.602Z,56179.68
2018-11-03T03:02:37.779Z,56163.23
2018-11-03T03:05:08.461Z,56181.73
2018-11-03T03:07:37.635Z,56181.73
2018-11-03T03:10:09.106Z,56173.51
2018-11-03T03:12:38.587Z,56186.87
2018-11-03T03:15:09.923Z,56156.03
2018-11-03T03:17:39.210Z,56184.82
2018-11-03T03:20:10.275Z,56193.05
2018-11-03T03:22:39.409Z,56162.20
2018-11-03T03:25:09.521Z,56162.20
2018-11-03T03:27:38.673Z,56181.73
2018-11-03T03:30:08.299Z,56159.11
2018-11-03T03:32:37.453Z,56183.79
2018-11-03T03:35:07.257Z,56185.85
2018-11-03T03:37:36.404Z,56157.05
2018-11-03T03:40:07.168Z,56178.65
2018-11-03T03:42:36.336Z,56182.76
2018-11-03T03:45:06.729Z,56162.20
2018-11-03T03:47:35.938Z,56160.14
2018-11-03T03:50:05.576Z,56170.42
2018-11-03T03:52:34.713Z,56188.93
2018-11-03T03:55:03.870Z,56178.65
2018-11-03T03:57:32.999Z,56189.96
2018-11-03T04:00:02.155Z,56180.71
2018-11-03T04:02:31.351Z,56149.86
2018-11-03T04:05:00.498Z,56176.59
2018-11-03T04:07:29.629Z,56162.20
2018-11-03T04:09:58.771Z,56159.11
2018-11-03T04:12:27.927Z,56177.62
2018-11-03T04:14:57.097Z,56159.11
2018-11-03T04:17:26.251Z,56184.82
2018-11-03T04:19:55.455Z,56179.68
2018-11-03T04:22:24.568Z,56165.28
2018-11-03T04:24:53.719Z,56181.73
2018-11-03T04:27:22.915Z,56149.86
2018-11-03T04:29:52.073Z,56167.34
2018-11-03T04:32:21.233Z,56151.91
2018-11-03T04:34:50.378Z,56170.42
2018-11-03T04:37:19.537Z,56174.54
2018-11-03T04:39:48.787Z,56187.90
2018-11-03T04:42:17.943Z,56176.59
2018-11-03T04:44:47.076Z,56178.65
2018-11-03T04:47:16.211Z,56149.86
2018-11-03T04:49:45.379Z,56163.23
2018-11-03T04:52:14.526Z,56130.32
2018-11-03T04:54:43.647Z,56183.79
2018-11-03T04:57:12.924Z,56203.33
2018-11-03T04:59:42.064Z,56166.31
2018-11-03T05:02:11.252Z,56170.42
2018-11-03T05:04:40.416Z,56180.71
2018-11-03T05:07:09.557Z,56168.37
2018-11-03T05:09:38.692Z,56169.39
2018-11-03T05:12:07.883Z,56162.20
2018-11-03T05:14:36.980Z,56214.64
2018-11-03T05:17:06.778Z,56162.20
2018-11-03T05:19:35.898Z,56195.10
2018-11-03T05:22:05.262Z,56178.65
2018-11-03T05:24:34.517Z,56182.76
2018-11-03T05:27:03.683Z,56194.07
2018-11-03T05:29:32.826Z,56188.93
2018-11-03T05:32:01.948Z,56153.97
2018-11-03T05:34:31.130Z,56210.52
2018-11-03T05:37:00.306Z,56177.62
2018-11-03T05:39:29.449Z,56170.42
2018-11-03T05:42:06.127Z,56156.03
2018-11-03T05:44:35.752Z,56190.99
2018-11-03T05:47:04.942Z,56164.25
2018-11-03T05:49:34.089Z,56162.20
2018-11-03T05:52:03.278Z,56204.36
2018-11-03T05:54:32.404Z,56170.42
2018-11-03T05:57:01.555Z,56226.98
2018-11-03T05:59:30.695Z,56189.96
2018-11-03T06:01:59.837Z,56223.89
2018-11-03T06:04:28.980Z,56182.76
2018-11-03T06:06:58.199Z,56203.33
2018-11-03T06:09:27.361Z,56133.41
2018-11-03T06:11:56.512Z,56184.82
2018-11-03T06:14:25.651Z,56189.96
2018-11-03T06:16:54.857Z,56167.34
2018-11-03T06:19:25.025Z,56176.59
2018-11-03T06:21:54.180Z,56177.62
2018-11-03T06:24:23.306Z,56182.76
2018-11-03T06:26:52.467Z,56182.76
2018-11-03T06:29:21.604Z,56165.28
2018-11-03T06:31:50.800Z,56175.56
2018-11-03T06:34:19.936Z,56178.65
2018-11-03T06:36:49.087Z,56160.14
2018-11-03T06:39:18.214Z,56166.31
2018-11-03T06:41:47.373Z,56162.20
2018-11-03T06:44:16.524Z,56177.62
2018-11-03T06:46:45.685Z,56183.79
2018-11-03T06:49:20.059Z,56150.89
2018-11-03T06:51:50.148Z,56173.51
2018-11-03T06:54:19.421Z,56188.93
2018-11-03T06:56:48.606Z,56141.63
2018-11-03T06:59:18.461Z,56180.71
2018-11-03T07:01:47.708Z,56146.77
2018-11-03T07:04:16.863Z,56159.11
2018-11-03T07:06:46.029Z,56166.31
2018-11-03T07:09:15.326Z,56144.71
2018-11-03T07:11:44.613Z,56181.73
2018-11-03T07:14:13.674Z,56174.54
2018-11-03T07:16:42.849Z,56169.39
2018-11-03T07:19:11.971Z,56178.65
2018-11-03T07:21:41.242Z,56209.50
2018-11-03T07:24:10.296Z,56145.75
2018-11-03T07:26:39.465Z,56195.10
2018-11-03T07:29:08.632Z,56178.65
2018-11-03T07:31:37.816Z,56190.99
2018-11-03T07:34:07.280Z,56186.87
2018-11-03T07:36:36.488Z,56150.89
2018-11-03T07:39:07.864Z,56170.42
2018-11-03T07:41:37.166Z,56176.59
2018-11-03T07:44:07.714Z,56184.82
2018-11-03T07:46:36.891Z,56132.38
2018-11-03T07:49:06.566Z,56177.62
2018-11-03T07:51:35.586Z,56179.68
2018-11-03T07:54:04.749Z,56143.69
2018-11-03T07:56:33.824Z,56178.65
2018-11-03T07:59:02.980Z,56140.61
2018-11-03T08:01:32.112Z,56153.97
2018-11-03T08:04:01.250Z,56143.69
2018-11-03T08:06:30.462Z,56141.63
2018-11-03T08:08:59.683Z,56183.79
2018-11-03T08:11:28.737Z,56180.71
2018-11-03T08:13:57.861Z,56190.99
2018-11-03T08:16:27.465Z,56164.25
2018-11-03T08:18:56.547Z,56181.73
2018-11-03T08:21:25.679Z,56174.54
2018-11-03T08:23:54.828Z,56152.94
2018-11-03T08:26:23.946Z,56141.63
2018-11-03T08:28:53.064Z,56143.69
2018-11-03T08:31:22.250Z,56152.94
2018-11-03T08:33:51.365Z,56151.91
2018-11-03T08:36:20.500Z,56138.55
2018-11-03T08:38:49.644Z,56149.86
2018-11-03T08:41:18.718Z,56148.83
2018-11-03T08:43:47.838Z,56137.52
2018-11-03T08:46:17.511Z,56151.91
2018-11-03T08:48:46.654Z,56133.41
2018-11-03T08:51:15.796Z,56158.09
2018-11-03T08:53:44.956Z,56196.13
2018-11-03T08:56:14.111Z,56153.97
2018-11-03T08:58:43.299Z,56176.59
2018-11-03T09:01:12.417Z,56149.86
2018-11-03T09:03:41.700Z,56146.77
2018-11-03T09:06:10.835Z,56148.83
2018-11-03T09:08:40.041Z,56146.77
2018-11-03T09:11:09.254Z,56161.17
2018-11-03T09:13:38.437Z,56157.05
2018-11-03T09:16:07.552Z,56160.14
2018-11-03T09:18:36.661Z,56141.63
2018-11-03T09:21:05.928Z,56153.97
2018-11-03T09:23:35.110Z,56170.42
2018-11-03T09:26:04.236Z,56134.43
2018-11-03T09:28:33.419Z,56126.21
2018-11-03T09:31:02.481Z,56131.35
2018-11-03T09:33:31.610Z,56149.86
2018-11-03T09:36:00.714Z,56140.61
2018-11-03T09:38:30.102Z,56158.09
2018-11-03T09:40:59.120Z,56141.63
2018-11-03T09:43:28.235Z,56127.23
2018-11-03T09:45:57.320Z,56143.69
2018-11-03T09:48:26.437Z,56150.89
2018-11-03T09:50:55.610Z,56141.63
2018-11-03T09:53:24.715Z,56132.38
2018-11-03T09:55:53.863Z,56112.84
2018-11-03T09:58:22.969Z,56108.73
2018-11-03T10:00:52.141Z,56133.41
2018-11-03T10:03:21.294Z,56136.49
2018-11-03T10:05:50.404Z,56135.46
2018-11-03T10:08:19.565Z,56100.50
2018-11-03T10:10:48.833Z,56104.62
2018-11-03T10:13:17.981Z,56108.73
2018-11-03T10:15:47.129Z,56114.90
2018-11-03T10:18:16.230Z,56138.55
2018-11-03T10:20:45.377Z,56111.81
2018-11-03T10:23:14.534Z,56115.93
2018-11-03T10:25:43.733Z,56104.62
2018-11-03T10:28:12.873Z,56101.53
2018-11-03T10:30:42.009Z,56092.28
2018-11-03T10:33:11.130Z,56108.73
2018-11-03T10:35:40.241Z,56141.63
2018-11-03T10:38:09.397Z,56080.96
2018-11-03T10:40:38.790Z,56059.37
2018-11-03T10:43:07.887Z,56096.39
2018-11-03T10:45:37.042Z,56116.95
2018-11-03T10:48:06.420Z,56135.46
2018-11-03T10:50:35.529Z,56084.05
2018-11-03T10:53:05.117Z,56076.85
2018-11-03T10:55:34.248Z,56077.88
2018-11-03T10:58:03.372Z,56097.42
2018-11-03T11:01:39.599Z,56106.67
2018-11-03T11:04:14.022Z,56082.00
2018-11-03T11:06:48.599Z,56108.73
2018-11-03T11:09:23.000Z,56114.90
2018-11-03T11:11:57.629Z,56107.70
2018-11-03T11:14:26.738Z,56119.01
2018-11-03T11:16:55.968Z,56086.11
2018-11-03T11:19:25.077Z,56108.73
2018-11-03T11:21:54.182Z,56137.52
2018-11-03T11:24:23.542Z,56090.22
2018-11-03T11:26:52.476Z,56119.01
2018-11-03T11:29:21.599Z,56119.01
2018-11-03T11:31:50.732Z,56123.12
2018-11-03T11:34:19.841Z,56112.84
2018-11-03T11:36:48.945Z,56112.84
2018-11-03T11:39:18.099Z,56135.46
2018-11-03T11:41:47.255Z,56110.79
2018-11-03T11:44:16.389Z,56119.01
2018-11-03T11:46:45.497Z,56103.59
2018-11-03T11:49:14.646Z,56110.79
2018-11-03T11:51:43.742Z,56113.87
2018-11-03T11:54:12.861Z,56112.84
2018-11-03T11:56:41.941Z,56125.18
2018-11-03T11:59:11.079Z,56141.63
2018-11-03T12:01:40.236Z,56125.18
2018-11-03T12:04:09.762Z,56129.29
2018-11-03T12:06:38.873Z,56158.09
2018-11-03T12:09:08.814Z,56136.49
2018-11-03T12:11:37.972Z,56155.00
2018-11-03T12:14:07.162Z,56116.95
2018-11-03T12:16:36.337Z,56093.30
2018-11-03T12:19:05.488Z,56123.12
2018-11-03T12:21:34.588Z,56107.70
2018-11-03T12:24:03.737Z,56119.01
2018-11-03T12:26:32.855Z,56100.50
2018-11-03T12:29:02.010Z,56145.75
2018-11-03T12:31:31.188Z,56141.63
2018-11-03T12:34:00.341Z,56121.07
2018-11-03T12:36:29.539Z,56117.98
2018-11-03T12:38:58.666Z,56082.00
2018-11-03T12:41:28.048Z,56121.07
2018-11-03T12:43:57.091Z,56106.67
2018-11-03T12:46:26.210Z,56102.56
2018-11-03T12:48:55.376Z,56108.73
2018-11-03T12:51:24.449Z,56102.56
2018-11-03T12:53:53.592Z,56079.94
2018-11-03T12:56:22.723Z,56084.05
2018-11-03T12:58:51.838Z,56161.17
2018-11-03T13:01:21.037Z,56095.36
2018-11-03T13:03:50.143Z,56106.67
2018-11-03T13:06:19.283Z,56115.93
2018-11-03T13:08:48.406Z,56106.67
2018-11-03T13:11:17.536Z,56106.67
2018-11-03T13:13:46.709Z,56132.38
2018-11-03T13:16:15.863Z,56131.35
2018-11-03T13:18:45.090Z,56084.05
2018-11-03T13:21:14.258Z,56106.67
2018-11-03T13:23:43.381Z,56103.59
2018-11-03T13:26:12.503Z,56119.01
2018-11-03T13:28:41.636Z,56126.21
2018-11-03T13:31:10.745Z,56126.21
2018-11-03T13:33:39.874Z,56101.53
2018-11-03T13:36:09.183Z,56114.90
2018-11-03T13:38:38.313Z,56098.45
2018-11-03T13:41:07.424Z,56110.79
2018-11-03T13:43:36.587Z,56131.35
2018-11-03T13:46:06.065Z,56114.90
2018-11-03T13:48:35.216Z,56149.86
2018-11-03T13:51:04.348Z,56142.66
2018-11-03T13:53:33.589Z,56112.84
2018-11-03T13:56:02.737Z,56115.93
2018-11-03T13:58:31.833Z,56129.29
2018-11-03T14:01:00.973Z,56135.46
2018-11-03T14:03:30.094Z,56091.25
2018-11-03T14:05:59.210Z,56112.84
2018-11-03T14:08:28.385Z,56121.07
2018-11-03T14:10:57.494Z,56094.33
2018-11-03T14:13:26.669Z,56086.11
2018-11-03T14:15:55.794Z,56088.16
2018-11-03T14:18:24.950Z,56113.87
2018-11-03T14:20:54.076Z,56119.01
2018-11-03T14:23:23.283Z,56115.93
2018-11-03T14:25:52.331Z,56120.04
2018-11-03T14:28:21.431Z,56124.15
2018-11-03T14:30:50.612Z,56123.12
2018-11-03T14:33:19.770Z,56101.53
2018-11-03T14:35:48.829Z,56110.79
2018-11-03T14:38:17.942Z,56120.04
2018-11-03T14:40:47.060Z,56119.01
2018-11-03T14:43:16.280Z,56122.09
2018-11-03T14:45:45.403Z,56138.55
2018-11-03T14:48:14.514Z,56143.69
2018-11-03T14:50:43.654Z,56130.32
2018-11-03T14:53:12.875Z,56129.29
2018-11-03T14:55:41.985Z,56159.11
2018-11-03T14:58:11.126Z,56156.03
2018-11-03T15:00:40.307Z,56127.23
2018-11-03T15:03:09.389Z,56126.21
2018-11-03T15:05:38.556Z,56131.35
2018-11-03T15:08:07.669Z,56135.46
2018-11-03T15:10:36.750Z,56139.57
2018-11-03T15:13:06.063Z,56130.32
2018-11-03T15:15:35.248Z,56156.03
2018-11-03T15:18:04.311Z,56175.56
2018-11-03T15:20:33.417Z,56132.38
2018-11-03T15:23:02.524Z,56144.71
2018-11-03T15:25:31.606Z,56184.82
2018-11-03T15:28:00.746Z,56158.09
2018-11-03T15:30:29.837Z,56156.03
2018-11-03T15:32:59.010Z,56135.46
2018-11-03T15:35:28.132Z,56153.97
2018-11-03T15:37:57.279Z,56150.89
2018-11-03T15:40:26.406Z,56198.19
2018-11-03T15:42:55.510Z,56143.69
2018-11-03T15:45:24.645Z,56164.25
2018-11-03T15:47:53.907Z,56175.56
2018-11-03T15:50:22.997Z,56127.23
2018-11-03T15:52:52.098Z,56090.22
2018-11-03T15:55:21.226Z,56160.14
2018-11-03T15:57:50.353Z,56145.75
2018-11-03T16:00:20.807Z,56143.69
2018-11-03T16:02:50.119Z,56209.50
2018-11-03T16:05:19.237Z,56135.46
2018-11-03T16:07:48.496Z,56146.77
2018-11-03T16:10:17.623Z,56125.18
2018-11-03T16:12:46.839Z,56151.91
2018-11-03T16:15:15.889Z,56140.61
2018-11-03T16:17:45.012Z,56127.23
2018-11-03T16:20:14.300Z,56155.00
2018-11-03T16:22:44.233Z,56136.49
2018-11-03T16:25:13.283Z,56177.62
2018-11-03T16:27:42.433Z,56170.42
2018-11-03T16:30:14.476Z,56131.35
2018-11-03T16:32:43.867Z,56142.66
2018-11-03T16:35:12.836Z,56145.75
2018-11-03T16:37:42.478Z,56138.55
2018-11-03T16:40:13.089Z,56176.59
2018-11-03T16:42:42.936Z,56162.20
2018-11-03T16:45:13.429Z,56170.42
2018-11-03T16:47:42.944Z,56176.59
2018-11-03T16:50:13.165Z,56161.17
2018-11-03T16:52:42.537Z,56176.59
2018-11-03T16:55:12.763Z,56161.17
2018-11-03T16:57:41.880Z,56161.17
2018-11-03T17:00:13.473Z,56156.03
2018-11-03T17:02:42.842Z,56180.71
2018-11-03T17:05:13.184Z,56161.17
2018-11-03T17:07:42.299Z,56184.82
2018-11-03T17:10:14.626Z,56133.41
2018-11-03T17:12:45.081Z,56161.17
2018-11-03T17:15:14.489Z,56144.71
2018-11-03T17:17:43.611Z,56140.61
2018-11-03T17:20:12.956Z,56172.48
2018-11-03T17:22:42.120Z,56158.09
2018-11-03T17:25:12.256Z,56153.97
2018-11-03T17:27:41.291Z,56166.31
2018-11-03T17:30:14.395Z,56122.09
2018-11-03T17:32:43.975Z,56178.65
2018-11-03T17:35:13.276Z,56157.05
2018-11-03T17:37:42.904Z,56159.11
2018-11-03T17:40:12.384Z,56152.94
2018-11-03T17:42:41.519Z,56167.34
2018-11-03T17:45:11.481Z,56170.42
2018-11-03T17:47:40.722Z,56148.83
2018-11-03T17:50:11.906Z,56156.03
2018-11-03T17:52:41.169Z,56144.71
2018-11-03T17:55:10.842Z,56182.76
2018-11-03T17:57:40.907Z,56162.20
2018-11-03T18:00:14.282Z,56176.59
2018-11-03T18:02:44.603Z,56183.79
2018-11-03T18:05:14.421Z,56193.05
2018-11-03T18:07:43.610Z,56182.76
2018-11-03T18:10:13.428Z,56207.44
2018-11-03T18:12:43.115Z,56147.80
2018-11-03T18:15:12.444Z,56177.62
2018-11-03T18:17:42.139Z,56181.73
2018-11-03T18:20:11.760Z,56198.19
2018-11-03T18:22:41.045Z,56174.54
2018-11-03T18:25:10.168Z,56170.42
2018-11-03T18:27:39.261Z,56141.63
2018-11-03T18:30:10.678Z,56209.50
2018-11-03T18:32:40.292Z,56161.17
2018-11-03T18:35:09.684Z,56217.72
2018-11-03T18:37:38.856Z,56174.54
2018-11-03T18:40:09.242Z,56199.21
2018-11-03T18:42:38.535Z,56176.59
2018-11-03T18:45:08.340Z,56177.62
2018-11-03T18:47:37.490Z,56169.39
2018-11-03T18:50:10.156Z,56141.63
2018-11-03T18:52:39.597Z,56174.54
2018-11-03T18:55:09.297Z,56207.44
2018-11-03T18:57:38.647Z,56145.75
2018-11-03T19:00:08.854Z,56187.90
2018-11-03T19:02:38.165Z,56165.28
2018-11-03T19:05:07.540Z,56181.73
2018-11-03T19:07:36.625Z,56181.73
2018-11-03T19:10:07.387Z,56193.05
2018-11-03T19:12:36.479Z,56223.89
2018-11-03T19:15:06.615Z,56182.76
2018-11-03T19:17:35.761Z,56213.61
2018-11-03T19:20:05.615Z,56188.93
2018-11-03T19:22:34.775Z,56185.85
2018-11-03T19:25:03.856Z,56186.87
2018-11-03T19:27:32.979Z,56225.95
2018-11-03T19:30:02.162Z,56195.10
2018-11-03T19:32:31.362Z,56192.02
2018-11-03T19:35:00.472Z,56193.05
2018-11-03T19:37:29.603Z,56175.56
2018-11-03T19:39:58.869Z,56195.10
2018-11-03T19:42:28.065Z,56195.10
2018-11-03T19:44:57.674Z,56197.16
2018-11-03T19:47:26.913Z,56176.59
2018-11-03T19:49:56.097Z,56188.93
2018-11-03T19:52:25.336Z,56181.73
2018-11-03T19:54:55.290Z,56188.93
2018-11-03T19:57:24.689Z,56172.48
2018-11-03T19:59:53.956Z,56202.30
2018-11-03T20:02:23.198Z,56202.30
2018-11-03T20:04:52.388Z,56247.54
2018-11-03T20:07:21.590Z,56212.58
2018-11-03T20:09:50.735Z,56209.50
2018-11-03T20:12:19.898Z,56211.55
2018-11-03T20:14:49.029Z,56194.07
2018-11-03T20:17:18.205Z,56198.19
2018-11-03T20:19:47.546Z,56209.50
2018-11-03T20:22:16.801Z,56208.47
2018-11-03T20:24:45.950Z,56203.33
2018-11-03T20:27:15.107Z,56188.93
2018-11-03T20:29:44.224Z,56190.99
2018-11-03T20:32:13.397Z,56203.33
2018-11-03T20:34:42.548Z,56176.59
2018-11-03T20:37:11.678Z,56205.38
2018-11-03T20:39:40.844Z,56170.42
2018-11-03T20:42:09.953Z,56181.73
2018-11-03T20:44:39.130Z,56228.01
2018-11-03T20:47:08.268Z,56196.13
2018-11-03T20:49:37.409Z,56188.93
2018-11-03T20:52:07.223Z,56190.99
2018-11-03T20:54:36.410Z,56214.64
2018-11-03T20:57:05.952Z,56196.13
2018-11-03T20:59:35.118Z,56198.19
2018-11-03T21:02:04.436Z,56190.99
2018-11-03T21:04:33.506Z,56208.47
2018-11-03T21:07:02.714Z,56209.50
2018-11-03T21:09:31.852Z,56189.96
2018-11-03T21:12:00.962Z,56180.71
2018-11-03T21:14:30.122Z,56208.47
2018-11-03T21:16:59.294Z,56214.64
2018-11-03T21:19:28.462Z,56217.72
2018-11-03T21:21:57.639Z,56224.92
2018-11-03T21:24:26.768Z,56203.33
2018-11-03T21:26:55.978Z,56236.23
2018-11-03T21:29:25.216Z,56162.20
2018-11-03T21:31:54.519Z,56209.50
2018-11-03T21:34:23.583Z,56222.87
2018-11-03T21:36:52.698Z,56217.72
2018-11-03T21:39:21.826Z,56201.27
2018-11-03T21:41:50.957Z,56240.34
2018-11-03T21:44:20.100Z,56256.80
2018-11-03T21:46:49.303Z,56221.84
2018-11-03T21:49:18.401Z,56199.21
2018-11-03T21:51:47.745Z,56238.29
2018-11-03T21:54:16.851Z,56222.87
2018-11-03T21:56:45.969Z,56210.52
2018-11-03T21:59:15.095Z,56209.50
2018-11-03T22:01:44.272Z,56230.06
2018-11-03T22:04:13.443Z,56186.87
2018-11-03T22:06:42.550Z,56186.87
2018-11-03T22:09:13.023Z,56200.24
2018-11-03T22:11:42.277Z,56207.44
2018-11-03T22:14:11.511Z,56215.67
2018-11-03T22:16:40.689Z,56198.19
2018-11-03T22:19:09.815Z,56196.13
2018-11-03T22:21:38.938Z,56180.71
2018-11-03T22:24:08.515Z,56193.05
2018-11-03T22:26:37.704Z,56215.67
2018-11-03T22:29:06.908Z,56216.70
2018-11-03T22:31:36.049Z,56210.52
2018-11-03T22:34:05.466Z,56201.27
2018-11-03T22:36:34.612Z,56207.44
2018-11-03T22:39:04.549Z,56167.34
2018-11-03T22:41:33.675Z,56203.33
2018-11-03T22:44:02.851Z,56206.41
2018-11-03T22:46:32.008Z,56196.13
2018-11-03T22:49:01.324Z,56212.58
2018-11-03T22:51:32.061Z,56193.05
2018-11-03T22:54:01.220Z,56193.05
2018-11-03T22:56:30.482Z,56189.96
2018-11-03T22:58:59.772Z,56134.43
2018-11-03T23:01:28.994Z,56178.65
2018-11-03T23:03:58.228Z,56176.59
2018-11-03T23:06:27.808Z,56188.93
2018-11-03T23:08:57.789Z,56192.02
2018-11-03T23:11:27.045Z,56203.33
2018-11-03T23:13:56.439Z,56190.99
2018-11-03T23:16:25.970Z,56198.19
2018-11-03T23:18:55.355Z,56217.72
2018-11-03T23:21:24.481Z,56197.16
2018-11-03T23:23:53.674Z,56194.07
2018-11-03T23:26:23.578Z,56160.14
2018-11-03T23:28:52.876Z,56224.92
2018-11-03T23:31:22.031Z,56220.81
2018-11-03T23:33:51.347Z,56183.79
2018-11-03T23:36:20.525Z,56229.04
2018-11-03T23:38:49.687Z,56173.51
2018-11-03T23:41:18.885Z,56208.47
2018-11-03T23:43:48.039Z,56184.82
2018-11-03T23:46:17.231Z,56212.58
2018-11-03T23:48:46.389Z,56196.13
2018-11-03T23:51:15.682Z,56184.82
2018-11-03T23:53:44.922Z,56223.89
2018-11-03T23:56:14.104Z,56156.03
2018-11-03T23:58:43.670Z,56190.99
